sensor_id;sensor_type;location;lat;lon;timestamp;pressure;altitude;pressure_sealevel;temperature;humidity
69911;BME280;63555;49.920;17.868;2024-02-21T00:00:33;99420.47;;;2.95;98.42
69911;BME280;63555;49.920;17.868;2024-02-21T00:05:33;99419.72;;;2.92;98.48
69911;BME280;63555;49.920;17.868;2024-02-21T00:10:37;99411.13;;;2.90;98.29
69911;BME280;63555;49.920;17.868;2024-02-21T00:15:37;99400.59;;;2.93;98.22
69911;BME280;63555;49.920;17.868;2024-02-21T00:20:37;99402.13;;;2.98;98.81
69911;BME280;63555;49.920;17.868;2024-02-21T00:25:38;99404.59;;;3.03;98.85
69911;BME280;63555;49.920;17.868;2024-02-21T00:30:38;99405.38;;;3.05;98.42
69911;BME280;63555;49.920;17.868;2024-02-21T00:35:38;99399.31;;;3.04;98.78
69911;BME280;63555;49.920;17.868;2024-02-21T00:40:39;99401.22;;;2.99;98.12
69911;BME280;63555;49.920;17.868;2024-02-21T00:45:39;99395.38;;;2.93;97.90
69911;BME280;63555;49.920;17.868;2024-02-21T00:50:40;99382.41;;;2.91;97.68
69911;BME280;63555;49.920;17.868;2024-02-21T00:55:40;99383.16;;;2.95;97.69
69911;BME280;63555;49.920;17.868;2024-02-21T01:00:40;99377.78;;;2.99;98.40
69911;BME280;63555;49.920;17.868;2024-02-21T01:05:41;99360.19;;;3.06;98.89
69911;BME280;63555;49.920;17.868;2024-02-21T01:10:41;99363.41;;;3.12;99.08
69911;BME280;63555;49.920;17.868;2024-02-21T01:15:43;99359.00;;;3.14;99.20
69911;BME280;63555;49.920;17.868;2024-02-21T01:20:43;99352.81;;;3.17;99.40
69911;BME280;63555;49.920;17.868;2024-02-21T01:25:43;99352.72;;;3.20;99.39
69911;BME280;63555;49.920;17.868;2024-02-21T01:30:44;99343.03;;;3.24;99.31
69911;BME280;63555;49.920;17.868;2024-02-21T01:35:44;99327.41;;;3.24;99.46
69911;BME280;63555;49.920;17.868;2024-02-21T01:40:45;99327.34;;;3.25;99.68
69911;BME280;63555;49.920;17.868;2024-02-21T01:45:50;99327.56;;;3.19;99.74
69911;BME280;63555;49.920;17.868;2024-02-21T01:50:54;99321.44;;;3.20;99.78
69911;BME280;63555;49.920;17.868;2024-02-21T01:55:54;99326.59;;;3.22;99.39
69911;BME280;63555;49.920;17.868;2024-02-21T02:00:56;99317.94;;;3.21;99.48
69911;BME280;63555;49.920;17.868;2024-02-21T02:05:56;99315.38;;;3.19;99.47
69911;BME280;63555;49.920;17.868;2024-02-21T02:10:57;99305.03;;;3.18;99.69
69911;BME280;63555;49.920;17.868;2024-02-21T02:15:57;99290.22;;;3.18;99.77
69911;BME280;63555;49.920;17.868;2024-02-21T02:20:58;99295.34;;;3.22;99.20
69911;BME280;63555;49.920;17.868;2024-02-21T02:25:59;99295.16;;;3.26;99.91
69911;BME280;63555;49.920;17.868;2024-02-21T02:31:01;99291.53;;;3.30;99.93
69911;BME280;63555;49.920;17.868;2024-02-21T02:36:01;99286.19;;;3.33;99.89
69911;BME280;63555;49.920;17.868;2024-02-21T02:41:01;99281.72;;;3.37;100.00
69911;BME280;63555;49.920;17.868;2024-02-21T02:46:02;99272.81;;;3.42;100.00
69911;BME280;63555;49.920;17.868;2024-02-21T02:51:03;99273.53;;;3.47;100.00
69911;BME280;63555;49.920;17.868;2024-02-21T02:56:04;99273.34;;;3.52;100.00
69911;BME280;63555;49.920;17.868;2024-02-21T03:01:06;99273.09;;;3.58;100.00
69911;BME280;63555;49.920;17.868;2024-02-21T03:06:07;99269.59;;;3.59;99.86
69911;BME280;63555;49.920;17.868;2024-02-21T03:11:07;99269.53;;;3.61;100.00
69911;BME280;63555;49.920;17.868;2024-02-21T03:16:08;99260.84;;;3.60;100.00
69911;BME280;63555;49.920;17.868;2024-02-21T03:21:09;99259.16;;;3.59;100.00
69911;BME280;63555;49.920;17.868;2024-02-21T03:26:09;99264.38;;;3.59;100.00
69911;BME280;63555;49.920;17.868;2024-02-21T03:31:11;99271.28;;;3.60;100.00
69911;BME280;63555;49.920;17.868;2024-02-21T03:36:15;99265.94;;;3.63;100.00
69911;BME280;63555;49.920;17.868;2024-02-21T03:41:15;99263.94;;;3.70;100.00
69911;BME280;63555;49.920;17.868;2024-02-21T03:46:16;99262.84;;;3.75;100.00
69911;BME280;63555;49.920;17.868;2024-02-21T03:51:16;99253.16;;;3.79;100.00
69911;BME280;63555;49.920;17.868;2024-02-21T03:56:17;99269.47;;;3.84;100.00
69911;BME280;63555;49.920;17.868;2024-02-21T04:01:17;99257.44;;;3.80;100.00
69911;BME280;63555;49.920;17.868;2024-02-21T04:06:17;99267.22;;;3.75;100.00
69911;BME280;63555;49.920;17.868;2024-02-21T04:11:19;99250.91;;;3.70;100.00
69911;BME280;63555;49.920;17.868;2024-02-21T04:16:19;99261.34;;;3.70;100.00
69911;BME280;63555;49.920;17.868;2024-02-21T04:21:20;99256.91;;;3.72;100.00
69911;BME280;63555;49.920;17.868;2024-02-21T04:26:20;99248.06;;;3.76;100.00
69911;BME280;63555;49.920;17.868;2024-02-21T04:31:20;99240.88;;;3.81;100.00
69911;BME280;63555;49.920;17.868;2024-02-21T04:36:21;99251.13;;;3.86;100.00
69911;BME280;63555;49.920;17.868;2024-02-21T04:41:21;99235.41;;;3.87;100.00
69911;BME280;63555;49.920;17.868;2024-02-21T04:46:22;99230.88;;;3.92;100.00
69911;BME280;63555;49.920;17.868;2024-02-21T04:51:22;99233.28;;;3.97;100.00
69911;BME280;63555;49.920;17.868;2024-02-21T04:56:23;99226.19;;;4.00;100.00
69911;BME280;63555;49.920;17.868;2024-02-21T05:01:23;99227.69;;;4.06;100.00
69911;BME280;63555;49.920;17.868;2024-02-21T05:06:24;99214.50;;;4.09;100.00
69911;BME280;63555;49.920;17.868;2024-02-21T05:11:24;99209.94;;;4.14;100.00
69911;BME280;63555;49.920;17.868;2024-02-21T05:16:24;99214.19;;;4.16;100.00
69911;BME280;63555;49.920;17.868;2024-02-21T05:21:25;99221.16;;;4.16;100.00
69911;BME280;63555;49.920;17.868;2024-02-21T05:26:27;99207.41;;;4.12;100.00
69911;BME280;63555;49.920;17.868;2024-02-21T05:31:54;99209.03;;;4.15;100.00
69911;BME280;63555;49.920;17.868;2024-02-21T05:36:55;99203.53;;;4.21;100.00
69911;BME280;63555;49.920;17.868;2024-02-21T05:41:55;99201.78;;;4.22;100.00
69911;BME280;63555;49.920;17.868;2024-02-21T05:46:56;99205.09;;;4.25;100.00
69911;BME280;63555;49.920;17.868;2024-02-21T05:51:56;99199.75;;;4.28;100.00
69911;BME280;63555;49.920;17.868;2024-02-21T05:56:57;99204.78;;;4.33;100.00
69911;BME280;63555;49.920;17.868;2024-02-21T06:01:57;99195.09;;;4.36;100.00
69911;BME280;63555;49.920;17.868;2024-02-21T06:06:58;99207.09;;;4.40;100.00
69911;BME280;63555;49.920;17.868;2024-02-21T06:11:58;99197.44;;;4.42;100.00
69911;BME280;63555;49.920;17.868;2024-02-21T06:16:59;99188.69;;;4.43;100.00
69911;BME280;63555;49.920;17.868;2024-02-21T06:21:59;99180.97;;;4.40;99.66
69911;BME280;63555;49.920;17.868;2024-02-21T06:26:59;99202.16;;;4.33;99.48
69911;BME280;63555;49.920;17.868;2024-02-21T06:32:00;99196.22;;;4.29;99.04
69911;BME280;63555;49.920;17.868;2024-02-21T06:37:01;99198.91;;;4.28;99.29
69911;BME280;63555;49.920;17.868;2024-02-21T06:42:01;99194.66;;;4.25;99.15
69911;BME280;63555;49.920;17.868;2024-02-21T06:47:01;99194.09;;;4.19;98.48
69911;BME280;63555;49.920;17.868;2024-02-21T06:52:04;99202.81;;;4.18;98.49
69911;BME280;63555;49.920;17.868;2024-02-21T06:57:04;99212.03;;;4.26;98.90
69911;BME280;63555;49.920;17.868;2024-02-21T07:02:05;99204.63;;;4.37;98.65
69911;BME280;63555;49.920;17.868;2024-02-21T07:07:05;99211.19;;;4.46;98.68
69911;BME280;63555;49.920;17.868;2024-02-21T07:12:06;99200.72;;;4.66;99.20
69911;BME280;63555;49.920;17.868;2024-02-21T07:17:06;99193.31;;;4.95;99.55
69911;BME280;63555;49.920;17.868;2024-02-21T07:22:07;99194.47;;;5.27;99.18
69911;BME280;63555;49.920;17.868;2024-02-21T07:27:07;99180.16;;;5.70;99.10
69911;BME280;63555;49.920;17.868;2024-02-21T07:32:08;99179.41;;;6.21;98.72
69911;BME280;63555;49.920;17.868;2024-02-21T07:37:08;99177.72;;;6.53;97.83
69911;BME280;63555;49.920;17.868;2024-02-21T07:42:08;99174.66;;;6.78;96.58
69911;BME280;63555;49.920;17.868;2024-02-21T07:47:09;99163.88;;;7.00;96.49
69911;BME280;63555;49.920;17.868;2024-02-21T07:52:09;99154.41;;;7.13;95.61
69911;BME280;63555;49.920;17.868;2024-02-21T07:57:10;99138.75;;;7.12;94.84
69911;BME280;63555;49.920;17.868;2024-02-21T08:02:10;99137.38;;;6.89;94.25
69911;BME280;63555;49.920;17.868;2024-02-21T08:07:10;99139.28;;;6.69;94.22
69911;BME280;63555;49.920;17.868;2024-02-21T08:12:11;99135.16;;;6.65;94.06
69911;BME280;63555;49.920;17.868;2024-02-21T08:17:11;99126.94;;;6.71;94.09
69911;BME280;63555;49.920;17.868;2024-02-21T08:22:12;99121.72;;;6.87;94.21
69911;BME280;63555;49.920;17.868;2024-02-21T08:27:12;99125.38;;;7.16;93.99
69911;BME280;63555;49.920;17.868;2024-02-21T08:32:12;99111.47;;;7.76;93.80
69911;BME280;63555;49.920;17.868;2024-02-21T08:37:13;99107.56;;;8.41;93.06
69911;BME280;63555;49.920;17.868;2024-02-21T08:42:13;99091.03;;;8.82;90.51
69911;BME280;63555;49.920;17.868;2024-02-21T08:47:13;99098.50;;;9.02;89.54
69911;BME280;63555;49.920;17.868;2024-02-21T08:52:14;99096.94;;;9.26;88.65
69911;BME280;63555;49.920;17.868;2024-02-21T08:57:14;99101.84;;;9.45;86.14
69911;BME280;63555;49.920;17.868;2024-02-21T09:02:15;99094.59;;;9.49;86.11
69911;BME280;63555;49.920;17.868;2024-02-21T09:07:18;99096.47;;;9.74;84.86
69911;BME280;63555;49.920;17.868;2024-02-21T09:12:19;99098.06;;;9.89;82.81
69911;BME280;63555;49.920;17.868;2024-02-21T09:17:19;99098.47;;;9.70;82.43
69911;BME280;63555;49.920;17.868;2024-02-21T09:22:20;99088.63;;;9.60;81.78
69911;BME280;63555;49.920;17.868;2024-02-21T09:27:21;99092.22;;;9.58;81.28
69911;BME280;63555;49.920;17.868;2024-02-21T09:32:22;99096.44;;;9.61;80.92
69911;BME280;63555;49.920;17.868;2024-02-21T09:37:22;99101.84;;;9.85;80.15
69911;BME280;63555;49.920;17.868;2024-02-21T09:42:40;99101.91;;;10.23;78.55
69911;BME280;63555;49.920;17.868;2024-02-21T09:53:00;99103.09;;;10.44;75.96
69911;BME280;63555;49.920;17.868;2024-02-21T09:58:02;99100.22;;;10.35;75.43
69911;BME280;63555;49.920;17.868;2024-02-21T10:03:03;99109.16;;;10.19;74.69
69911;BME280;63555;49.920;17.868;2024-02-21T10:08:14;99117.88;;;9.95;74.10
69911;BME280;63555;49.920;17.868;2024-02-21T10:13:24;99115.44;;;9.79;73.90
69911;BME280;63555;49.920;17.868;2024-02-21T10:18:24;99110.69;;;9.71;74.27
69911;BME280;63555;49.920;17.868;2024-02-21T10:23:40;99104.75;;;9.55;73.56
69911;BME280;63555;49.920;17.868;2024-02-21T10:28:41;99097.50;;;9.44;73.19
69911;BME280;63555;49.920;17.868;2024-02-21T10:33:42;99099.72;;;9.38;73.03
69911;BME280;63555;49.920;17.868;2024-02-21T10:38:43;99105.41;;;9.44;73.38
69911;BME280;63555;49.920;17.868;2024-02-21T10:43:52;99099.47;;;9.55;73.37
69911;BME280;63555;49.920;17.868;2024-02-21T10:49:07;99081.28;;;9.65;72.85
69911;BME280;63555;49.920;17.868;2024-02-21T10:54:16;99071.25;;;9.57;71.77
69911;BME280;63555;49.920;17.868;2024-02-21T10:59:21;99083.56;;;9.30;72.13
69911;BME280;63555;49.920;17.868;2024-02-21T11:04:22;99065.94;;;9.17;72.30
69911;BME280;63555;49.920;17.868;2024-02-21T11:09:32;99055.72;;;9.13;72.25
69911;BME280;63555;49.920;17.868;2024-02-21T11:14:33;99051.31;;;9.13;72.23
69911;BME280;63555;49.920;17.868;2024-02-21T11:19:37;99047.94;;;9.11;72.22
69911;BME280;63555;49.920;17.868;2024-02-21T11:24:37;99055.97;;;8.96;71.97
69911;BME280;63555;49.920;17.868;2024-02-21T11:29:48;99027.88;;;8.69;72.84
69911;BME280;63555;49.920;17.868;2024-02-21T11:40:02;99034.09;;;8.40;73.57
69911;BME280;63555;49.920;17.868;2024-02-21T11:45:03;99016.72;;;8.23;74.69
69911;BME280;63555;49.920;17.868;2024-02-21T11:50:04;99009.03;;;8.20;75.41
69911;BME280;63555;49.920;17.868;2024-02-21T11:55:05;99020.47;;;8.19;75.49
69911;BME280;63555;49.920;17.868;2024-02-21T12:00:15;99015.59;;;7.98;75.84
69911;BME280;63555;49.920;17.868;2024-02-21T12:05:18;99009.75;;;7.79;76.33
69911;BME280;63555;49.920;17.868;2024-02-21T12:10:19;98998.28;;;7.66;77.00
69911;BME280;63555;49.920;17.868;2024-02-21T12:15:20;98991.25;;;7.52;77.98
69911;BME280;63555;49.920;17.868;2024-02-21T12:20:21;98990.84;;;7.44;78.28
69911;BME280;63555;49.920;17.868;2024-02-21T12:25:22;98984.09;;;7.40;78.68
69911;BME280;63555;49.920;17.868;2024-02-21T12:30:23;98978.50;;;7.46;78.68
69911;BME280;63555;49.920;17.868;2024-02-21T12:35:23;98984.03;;;7.56;79.04
69911;BME280;63555;49.920;17.868;2024-02-21T12:40:24;98975.06;;;7.74;78.88
69911;BME280;63555;49.920;17.868;2024-02-21T12:45:24;98960.81;;;8.07;79.14
69911;BME280;63555;49.920;17.868;2024-02-21T12:50:25;98958.34;;;8.46;78.45
69911;BME280;63555;49.920;17.868;2024-02-21T12:55:25;98961.22;;;8.70;77.57
69911;BME280;63555;49.920;17.868;2024-02-21T13:00:26;98946.19;;;8.72;77.01
69911;BME280;63555;49.920;17.868;2024-02-21T13:05:27;98940.41;;;8.80;76.94
69911;BME280;63555;49.920;17.868;2024-02-21T13:10:28;98942.28;;;9.05;76.83
69911;BME280;63555;49.920;17.868;2024-02-21T13:15:28;98936.31;;;9.28;75.76
69911;BME280;63555;49.920;17.868;2024-02-21T13:20:29;98929.56;;;9.37;74.96
69911;BME280;63555;49.920;17.868;2024-02-21T13:25:29;98920.53;;;9.28;75.05
69911;BME280;63555;49.920;17.868;2024-02-21T13:30:29;98919.47;;;9.31;75.28
69911;BME280;63555;49.920;17.868;2024-02-21T13:35:30;98908.53;;;9.62;75.33
69911;BME280;63555;49.920;17.868;2024-02-21T13:40:30;98901.91;;;10.18;73.83
69911;BME280;63555;49.920;17.868;2024-02-21T13:45:30;98897.78;;;10.64;72.11
69911;BME280;63555;49.920;17.868;2024-02-21T13:50:31;98880.81;;;11.14;71.11
69911;BME280;63555;49.920;17.868;2024-02-21T13:55:32;98865.16;;;11.46;69.54
69911;BME280;63555;49.920;17.868;2024-02-21T14:00:32;98867.72;;;11.12;69.21
69911;BME280;63555;49.920;17.868;2024-02-21T14:05:35;98862.09;;;10.47;70.46
69911;BME280;63555;49.920;17.868;2024-02-21T14:10:35;98856.03;;;9.97;72.97
69911;BME280;63555;49.920;17.868;2024-02-21T14:15:37;98857.28;;;9.55;73.54
69911;BME280;63555;49.920;17.868;2024-02-21T14:20:41;98847.25;;;9.22;74.88
69911;BME280;63555;49.920;17.868;2024-02-21T14:25:41;98842.00;;;9.09;75.01
69911;BME280;63555;49.920;17.868;2024-02-21T14:30:42;98842.22;;;9.06;74.54
69911;BME280;63555;49.920;17.868;2024-02-21T14:35:43;98840.31;;;9.08;74.41
69911;BME280;63555;49.920;17.868;2024-02-21T14:40:43;98839.88;;;9.02;74.37
69911;BME280;63555;49.920;17.868;2024-02-21T14:45:44;98829.47;;;9.00;74.32
69911;BME280;63555;49.920;17.868;2024-02-21T14:50:47;98813.78;;;8.99;74.22
69911;BME280;63555;49.920;17.868;2024-02-21T14:55:48;98810.63;;;9.06;73.71
69911;BME280;63555;49.920;17.868;2024-02-21T15:00:50;98810.84;;;9.16;73.27
69911;BME280;63555;49.920;17.868;2024-02-21T15:05:50;98806.00;;;9.10;72.32
69911;BME280;63555;49.920;17.868;2024-02-21T15:10:50;98788.97;;;8.90;72.07
69911;BME280;63555;49.920;17.868;2024-02-21T15:15:51;98784.19;;;8.57;72.95
69911;BME280;63555;49.920;17.868;2024-02-21T15:20:52;98793.53;;;8.21;73.47
69911;BME280;63555;49.920;17.868;2024-02-21T15:25:52;98791.94;;;7.92;74.09
69911;BME280;63555;49.920;17.868;2024-02-21T15:30:52;98790.47;;;7.74;74.32
69911;BME280;63555;49.920;17.868;2024-02-21T15:35:53;98789.94;;;7.54;74.85
69911;BME280;63555;49.920;17.868;2024-02-21T15:40:53;98785.38;;;7.29;75.38
69911;BME280;63555;49.920;17.868;2024-02-21T15:45:54;98785.78;;;7.09;75.82
69911;BME280;63555;49.920;17.868;2024-02-21T15:50:54;98790.41;;;6.90;76.41
69911;BME280;63555;49.920;17.868;2024-02-21T15:55:55;98800.03;;;6.75;76.72
69911;BME280;63555;49.920;17.868;2024-02-21T16:00:55;98792.25;;;6.59;77.28
69911;BME280;63555;49.920;17.868;2024-02-21T16:05:55;98782.56;;;6.46;77.78
69911;BME280;63555;49.920;17.868;2024-02-21T16:10:56;98769.25;;;6.34;78.25
69911;BME280;63555;49.920;17.868;2024-02-21T16:15:56;98779.16;;;6.29;78.35
69911;BME280;63555;49.920;17.868;2024-02-21T16:20:57;98763.91;;;6.22;79.45
69911;BME280;63555;49.920;17.868;2024-02-21T16:25:57;98757.59;;;6.10;78.96
69911;BME280;63555;49.920;17.868;2024-02-21T16:30:57;98765.28;;;5.97;79.59
69911;BME280;63555;49.920;17.868;2024-02-21T16:35:59;98768.47;;;5.87;79.91
69911;BME280;63555;49.920;17.868;2024-02-21T16:41:00;98749.81;;;5.77;80.67
69911;BME280;63555;49.920;17.868;2024-02-21T16:46:01;98739.72;;;5.71;80.11
69911;BME280;63555;49.920;17.868;2024-02-21T16:51:01;98754.81;;;5.66;80.97
69911;BME280;63555;49.920;17.868;2024-02-21T16:56:04;98754.91;;;5.64;81.37
69911;BME280;63555;49.920;17.868;2024-02-21T17:01:06;98752.47;;;5.61;80.82
69911;BME280;63555;49.920;17.868;2024-02-21T17:06:06;98757.94;;;5.57;81.73
69911;BME280;63555;49.920;17.868;2024-02-21T17:11:07;98748.75;;;5.50;81.24
69911;BME280;63555;49.920;17.868;2024-02-21T17:16:07;98749.84;;;5.46;81.00
69911;BME280;63555;49.920;17.868;2024-02-21T17:21:09;98743.19;;;5.40;82.02
69911;BME280;63555;49.920;17.868;2024-02-21T17:26:09;98749.44;;;5.37;81.58
69911;BME280;63555;49.920;17.868;2024-02-21T17:31:10;98738.47;;;5.31;82.21
69911;BME280;63555;49.920;17.868;2024-02-21T17:36:10;98744.69;;;5.28;82.08
69911;BME280;63555;49.920;17.868;2024-02-21T17:41:10;98739.81;;;5.22;82.39
69911;BME280;63555;49.920;17.868;2024-02-21T17:46:11;98738.41;;;5.15;81.88
69911;BME280;63555;49.920;17.868;2024-02-21T17:51:12;98743.72;;;5.13;81.82
69911;BME280;63555;49.920;17.868;2024-02-21T17:56:13;98733.19;;;5.15;82.22
69911;BME280;63555;49.920;17.868;2024-02-21T18:01:14;98731.34;;;5.17;82.98
69911;BME280;63555;49.920;17.868;2024-02-21T18:06:15;98718.34;;;5.16;82.66
69911;BME280;63555;49.920;17.868;2024-02-21T18:11:16;98714.03;;;5.15;82.40
69911;BME280;63555;49.920;17.868;2024-02-21T18:16:16;98702.75;;;5.14;83.07
69911;BME280;63555;49.920;17.868;2024-02-21T18:21:17;98687.25;;;5.11;82.50
69911;BME280;63555;49.920;17.868;2024-02-21T18:26:17;98680.31;;;5.10;83.20
69911;BME280;63555;49.920;17.868;2024-02-21T18:31:18;98676.94;;;5.08;82.76
69911;BME280;63555;49.920;17.868;2024-02-21T18:36:19;98675.84;;;5.12;82.90
69911;BME280;63555;49.920;17.868;2024-02-21T18:41:20;98657.31;;;5.17;82.77
69911;BME280;63555;49.920;17.868;2024-02-21T18:46:20;98643.31;;;5.18;83.03
69911;BME280;63555;49.920;17.868;2024-02-21T18:51:21;98638.09;;;5.18;83.36
69911;BME280;63555;49.920;17.868;2024-02-21T18:56:21;98629.00;;;5.25;82.90
69911;BME280;63555;49.920;17.868;2024-02-21T19:01:26;98629.50;;;5.31;83.02
69911;BME280;63555;49.920;17.868;2024-02-21T19:06:27;98642.22;;;5.37;83.19
69911;BME280;63555;49.920;17.868;2024-02-21T19:11:27;98635.47;;;5.33;83.24
69911;BME280;63555;49.920;17.868;2024-02-21T19:16:28;98632.53;;;5.24;83.28
69911;BME280;63555;49.920;17.868;2024-02-21T19:21:30;98622.75;;;5.11;83.46
69911;BME280;63555;49.920;17.868;2024-02-21T19:26:30;98626.03;;;4.99;83.18
69911;BME280;63555;49.920;17.868;2024-02-21T19:31:30;98633.28;;;4.94;83.63
69911;BME280;63555;49.920;17.868;2024-02-21T19:36:31;98637.75;;;4.92;83.14
69911;BME280;63555;49.920;17.868;2024-02-21T19:41:31;98640.63;;;4.88;83.37
69911;BME280;63555;49.920;17.868;2024-02-21T19:46:33;98642.63;;;4.83;83.53
69911;BME280;63555;49.920;17.868;2024-02-21T19:51:36;98637.91;;;4.73;83.39
69911;BME280;63555;49.920;17.868;2024-02-21T19:56:36;98620.28;;;4.61;83.67
69911;BME280;63555;49.920;17.868;2024-02-21T20:01:38;98619.34;;;4.46;83.55
69911;BME280;63555;49.920;17.868;2024-02-21T20:06:39;98597.34;;;4.35;83.53
69911;BME280;63555;49.920;17.868;2024-02-21T20:11:40;98595.34;;;4.23;83.72
69911;BME280;63555;49.920;17.868;2024-02-21T20:16:40;98597.59;;;4.13;83.59
69911;BME280;63555;49.920;17.868;2024-02-21T20:21:41;98589.09;;;4.09;84.39
69911;BME280;63555;49.920;17.868;2024-02-21T20:26:43;98587.25;;;4.11;84.29
69911;BME280;63555;49.920;17.868;2024-02-21T20:31:46;98588.00;;;4.13;84.02
69911;BME280;63555;49.920;17.868;2024-02-21T20:36:47;98588.69;;;4.17;84.72
69911;BME280;63555;49.920;17.868;2024-02-21T20:41:47;98585.16;;;4.18;84.40
69911;BME280;63555;49.920;17.868;2024-02-21T20:46:48;98575.31;;;4.23;84.67
69911;BME280;63555;49.920;17.868;2024-02-21T20:51:48;98574.69;;;4.35;84.49
69911;BME280;63555;49.920;17.868;2024-02-21T20:56:49;98559.38;;;4.45;84.49
69911;BME280;63555;49.920;17.868;2024-02-21T21:01:50;98533.69;;;4.53;84.35
69911;BME280;63555;49.920;17.868;2024-02-21T21:06:50;98522.91;;;4.59;84.38
69911;BME280;63555;49.920;17.868;2024-02-21T21:11:50;98520.13;;;4.62;83.83
69911;BME280;63555;49.920;17.868;2024-02-21T21:16:51;98512.22;;;4.64;84.11
69911;BME280;63555;49.920;17.868;2024-02-21T21:21:51;98496.28;;;4.68;84.28
69911;BME280;63555;49.920;17.868;2024-02-21T21:26:53;98489.28;;;4.69;84.08
69911;BME280;63555;49.920;17.868;2024-02-21T21:31:53;98473.19;;;4.76;83.91
69911;BME280;63555;49.920;17.868;2024-02-21T21:36:54;98450.66;;;4.90;83.80
69911;BME280;63555;49.920;17.868;2024-02-21T21:41:55;98447.69;;;4.96;83.36
69911;BME280;63555;49.920;17.868;2024-02-21T21:46:55;98437.81;;;5.01;83.73
69911;BME280;63555;49.920;17.868;2024-02-21T21:51:55;98428.94;;;5.03;82.70
69911;BME280;63555;49.920;17.868;2024-02-21T21:56:56;98439.19;;;4.92;82.68
69911;BME280;63555;49.920;17.868;2024-02-21T22:01:56;98423.19;;;4.83;82.90
69911;BME280;63555;49.920;17.868;2024-02-21T22:06:58;98409.06;;;4.71;82.89
69911;BME280;63555;49.920;17.868;2024-02-21T22:11:58;98397.31;;;4.64;82.78
69911;BME280;63555;49.920;17.868;2024-02-21T22:16:59;98394.69;;;4.64;83.20
69911;BME280;63555;49.920;17.868;2024-02-21T22:21:59;98392.91;;;4.64;82.64
69911;BME280;63555;49.920;17.868;2024-02-21T22:27:03;98372.22;;;4.61;82.83
69911;BME280;63555;49.920;17.868;2024-02-21T22:32:06;98372.56;;;4.55;82.49
69911;BME280;63555;49.920;17.868;2024-02-21T22:37:09;98367.19;;;4.42;82.30
69911;BME280;63555;49.920;17.868;2024-02-21T22:42:09;98356.19;;;4.37;82.38
69911;BME280;63555;49.920;17.868;2024-02-21T22:47:10;98358.63;;;4.40;82.53
69911;BME280;63555;49.920;17.868;2024-02-21T22:52:10;98357.06;;;4.52;82.60
69911;BME280;63555;49.920;17.868;2024-02-21T22:57:11;98354.00;;;4.60;81.74
69911;BME280;63555;49.920;17.868;2024-02-21T23:02:11;98347.09;;;4.59;82.11
69911;BME280;63555;49.920;17.868;2024-02-21T23:07:12;98343.75;;;4.57;81.48
69911;BME280;63555;49.920;17.868;2024-02-21T23:12:12;98332.09;;;4.62;81.56
69911;BME280;63555;49.920;17.868;2024-02-21T23:17:17;98321.66;;;4.62;81.63
69911;BME280;63555;49.920;17.868;2024-02-21T23:22:17;98322.78;;;4.58;81.42
69911;BME280;63555;49.920;17.868;2024-02-21T23:27:18;98318.47;;;4.57;81.37
69911;BME280;63555;49.920;17.868;2024-02-21T23:32:18;98303.47;;;4.61;81.08
69911;BME280;63555;49.920;17.868;2024-02-21T23:37:19;98304.75;;;4.54;81.28
69911;BME280;63555;49.920;17.868;2024-02-21T23:42:19;98292.63;;;4.53;80.98
69911;BME280;63555;49.920;17.868;2024-02-21T23:47:20;98297.41;;;4.60;81.33
69911;BME280;63555;49.920;17.868;2024-02-21T23:52:20;98289.97;;;4.68;80.85
69911;BME280;63555;49.920;17.868;2024-02-21T23:57:21;98285.22;;;4.75;80.83
